createdAt,value
2023-01-23T00:00:15.617Z,1.90
2023-01-23T00:03:18.699Z,1.90
2023-01-23T00:06:20.804Z,2.00
2023-01-23T00:09:22.893Z,2.00
2023-01-23T00:12:25.697Z,2.00
2023-01-23T00:15:27.631Z,2.00
2023-01-23T00:18:29.503Z,2.00
2023-01-23T00:21:32.016Z,1.90
2023-01-23T00:24:34.010Z,2.00
2023-01-23T00:27:35.836Z,2.00
2023-01-23T00:30:37.847Z,2.10
2023-01-23T00:33:41.415Z,2.00
2023-01-23T00:36:45.072Z,2.10
2023-01-23T00:39:50.870Z,2.10
2023-01-23T00:42:53.965Z,2.10
2023-01-23T00:45:56.016Z,2.20
2023-01-23T00:48:58.157Z,2.10
2023-01-23T00:52:00.109Z,2.10
2023-01-23T00:55:02.228Z,2.20
2023-01-23T00:58:04.380Z,2.10
2023-01-23T01:01:06.451Z,2.10
2023-01-23T01:04:08.690Z,2.10
2023-01-23T01:07:10.524Z,2.10
2023-01-23T01:10:13.834Z,2.10
2023-01-23T01:13:19.658Z,2.10
2023-01-23T01:16:21.725Z,2.10
2023-01-23T01:19:23.636Z,2.10
2023-01-23T01:22:25.624Z,2.00
2023-01-23T01:25:27.913Z,2.10
2023-01-23T01:28:31.190Z,2.10
2023-01-23T01:31:33.194Z,2.10
2023-01-23T01:34:35.465Z,2.00
2023-01-23T01:37:39.882Z,2.00
2023-01-23T01:40:41.958Z,2.10
2023-01-23T01:43:44.213Z,2.20
2023-01-23T01:46:46.882Z,2.20
2023-01-23T01:49:50.935Z,2.20
2023-01-23T01:52:53.052Z,2.10
2023-01-23T01:55:55.738Z,2.20
2023-01-23T01:59:00.143Z,2.20
2023-01-23T02:02:24.671Z,2.10
2023-01-23T02:05:31.637Z,2.20
2023-01-23T02:09:07.469Z,2.20
2023-01-23T02:12:09.841Z,2.20
2023-01-23T02:15:11.894Z,2.10
2023-01-23T02:18:13.915Z,2.10
2023-01-23T02:21:20.512Z,2.10
2023-01-23T02:24:52.588Z,2.20
2023-01-23T02:27:54.547Z,2.20
2023-01-23T02:30:56.629Z,2.10
2023-01-23T02:33:59.936Z,2.10
2023-01-23T02:37:02.102Z,2.20
2023-01-23T02:40:04.914Z,2.30
2023-01-23T02:43:10.556Z,2.30
2023-01-23T02:46:12.690Z,2.20
2023-01-23T02:49:15.631Z,2.10
2023-01-23T02:52:17.659Z,2.10
2023-01-23T02:55:19.509Z,2.10
2023-01-23T02:58:40.194Z,2.10
2023-01-23T03:01:42.040Z,2.10
2023-01-23T03:04:44.035Z,2.20
2023-01-23T03:07:45.890Z,2.20
2023-01-23T03:10:47.862Z,2.10
2023-01-23T03:13:49.937Z,2.10
2023-01-23T03:16:53.887Z,2.20
2023-01-23T03:19:57.818Z,2.10
2023-01-23T03:22:59.754Z,2.20
2023-01-23T03:26:01.981Z,2.20
2023-01-23T03:29:22.352Z,2.20
2023-01-23T03:32:26.157Z,2.20
2023-01-23T03:35:28.057Z,2.10
2023-01-23T03:38:29.867Z,2.20
2023-01-23T03:41:31.931Z,2.20
2023-01-23T03:44:33.959Z,2.30
2023-01-23T03:47:36.225Z,2.40
2023-01-23T03:50:38.141Z,2.30
2023-01-23T03:53:41.125Z,2.40
2023-01-23T03:56:43.516Z,2.40
2023-01-23T03:59:45.339Z,2.40
2023-01-23T04:02:47.353Z,2.30
2023-01-23T04:05:49.556Z,2.40
2023-01-23T04:08:51.513Z,2.40
2023-01-23T04:11:55.043Z,2.40
2023-01-23T04:14:57.021Z,2.40
2023-01-23T04:17:58.978Z,2.40
2023-01-23T04:21:00.835Z,2.40
2023-01-23T04:24:02.669Z,2.30
2023-01-23T04:27:04.723Z,2.30
2023-01-23T04:30:07.333Z,2.30
2023-01-23T04:33:09.291Z,2.40
2023-01-23T04:36:11.811Z,2.50
2023-01-23T04:39:14.292Z,2.50
2023-01-23T04:42:16.142Z,2.50
2023-01-23T04:45:18.116Z,2.50
2023-01-23T04:48:20.300Z,2.50
2023-01-23T04:51:22.692Z,2.50
2023-01-23T04:54:24.767Z,2.40
2023-01-23T04:57:26.553Z,2.50
2023-01-23T05:00:29.458Z,2.60
2023-01-23T05:03:35.172Z,2.60
2023-01-23T05:06:37.313Z,2.60
2023-01-23T05:09:39.848Z,2.60
2023-01-23T05:12:42.256Z,2.50
2023-01-23T05:15:44.395Z,2.50
2023-01-23T05:18:46.521Z,2.50
2023-01-23T05:21:48.834Z,2.40
2023-01-23T05:24:50.850Z,2.50
2023-01-23T05:27:53.692Z,2.50
2023-01-23T05:30:55.691Z,2.40
2023-01-23T05:34:00.844Z,2.50
2023-01-23T05:37:03.232Z,2.40
2023-01-23T05:40:08.820Z,2.40
2023-01-23T05:43:19.927Z,2.50
2023-01-23T05:46:21.916Z,2.40
2023-01-23T05:49:24.119Z,2.40
2023-01-23T05:52:26.173Z,2.40
2023-01-23T05:55:28.085Z,2.40
2023-01-23T05:58:29.987Z,2.40
2023-01-23T06:01:32.093Z,2.40
2023-01-23T06:04:34.110Z,2.40
2023-01-23T06:07:36.158Z,2.40
2023-01-23T06:10:38.857Z,2.30
2023-01-23T06:13:40.901Z,2.40
2023-01-23T06:16:42.971Z,2.30
2023-01-23T06:19:45.078Z,2.40
2023-01-23T06:22:47.239Z,2.40
2023-01-23T06:25:49.194Z,2.40
2023-01-23T06:28:51.254Z,2.40
2023-01-23T06:31:53.519Z,2.40
2023-01-23T06:34:56.532Z,2.40
2023-01-23T06:37:58.384Z,2.40
2023-01-23T06:41:00.592Z,2.40
2023-01-23T06:44:02.631Z,2.40
2023-01-23T06:47:05.169Z,2.50
2023-01-23T06:50:07.784Z,2.50
2023-01-23T06:53:14.415Z,2.40
2023-01-23T06:56:16.484Z,2.50
2023-01-23T06:59:18.694Z,2.60
2023-01-23T07:02:20.630Z,2.70
2023-01-23T07:05:22.619Z,2.70
2023-01-23T07:08:24.460Z,2.70
2023-01-23T07:11:26.757Z,2.80
2023-01-23T07:14:28.745Z,2.70
2023-01-23T07:17:30.543Z,2.60
2023-01-23T07:20:32.663Z,2.70
2023-01-23T07:23:34.936Z,2.60
2023-01-23T07:26:36.903Z,2.60
2023-01-23T07:29:38.727Z,2.60
2023-01-23T07:32:40.917Z,2.70
2023-01-23T07:35:47.914Z,2.70
2023-01-23T07:38:51.117Z,2.80
2023-01-23T07:41:53.217Z,2.70
2023-01-23T07:45:06.478Z,2.70
2023-01-23T07:48:08.586Z,2.70
2023-01-23T07:51:11.643Z,2.80
2023-01-23T07:54:28.898Z,2.80
2023-01-23T08:10:00.169Z,2.80
2023-01-23T08:24:18.022Z,2.80
2023-01-23T08:42:30.442Z,2.80
2023-01-23T08:58:07.576Z,2.90
2023-01-23T09:01:54.505Z,2.80
2023-01-23T09:05:06.768Z,2.80
2023-01-23T09:12:41.794Z,2.90
2023-01-23T09:24:25.466Z,2.90
2023-01-23T09:27:52.598Z,3.00
2023-01-23T09:31:29.092Z,3.00
2023-01-23T09:34:46.587Z,3.00
2023-01-23T09:38:01.259Z,3.00
2023-01-23T09:41:39.777Z,3.00
2023-01-23T09:44:46.663Z,3.00
2023-01-23T09:48:18.366Z,2.90
2023-01-23T09:55:58.055Z,3.00
2023-01-23T09:59:08.695Z,3.00
2023-01-23T10:02:30.719Z,3.10
2023-01-23T10:05:56.643Z,3.10
2023-01-23T10:09:17.235Z,3.10
2023-01-23T10:21:58.734Z,3.20
2023-01-23T10:25:58.427Z,3.20
2023-01-23T10:33:15.478Z,3.30
2023-01-23T10:45:14.953Z,3.30
2023-01-23T10:48:33.339Z,3.30
2023-01-23T10:51:47.604Z,3.40
2023-01-23T10:54:58.561Z,3.40
2023-01-23T10:58:30.666Z,3.40
2023-01-23T11:01:34.291Z,3.40
2023-01-23T11:05:52.640Z,3.40
2023-01-23T11:09:17.531Z,3.50
2023-01-23T11:12:27.278Z,3.40
2023-01-23T11:16:11.258Z,3.50
2023-01-23T11:19:36.322Z,3.50
2023-01-23T11:23:12.467Z,3.50
2023-01-23T11:26:45.445Z,3.50
2023-01-23T11:31:18.285Z,3.50
2023-01-23T11:43:11.146Z,3.50
2023-01-23T11:47:01.350Z,3.60
2023-01-23T11:55:21.146Z,3.60
2023-01-23T11:59:22.392Z,3.50
2023-01-23T12:03:03.648Z,3.60
2023-01-23T12:06:34.642Z,3.50
2023-01-23T16:48:39.184Z,3.70
2023-01-23T16:52:05.391Z,3.70
2023-01-23T16:55:23.842Z,3.70
2023-01-23T16:58:28.796Z,3.70
2023-01-23T17:01:37.346Z,3.60
2023-01-23T17:04:39.209Z,3.60
2023-01-23T17:12:15.993Z,3.70
2023-01-23T17:15:39.909Z,3.70
2023-01-23T17:33:52.734Z,3.70
2023-01-23T17:36:57.354Z,3.60
2023-01-23T19:47:04.191Z,3.50
2023-01-23T20:04:33.765Z,3.40
2023-01-23T21:17:05.352Z,3.30
2023-01-23T21:20:07.990Z,3.20
2023-01-23T21:23:10.138Z,3.20
2023-01-23T21:26:12.549Z,3.20
2023-01-23T21:29:20.977Z,3.20
2023-01-23T21:32:27.118Z,3.20
2023-01-23T21:35:33.518Z,3.20
2023-01-23T21:38:40.545Z,3.20
2023-01-23T21:41:45.665Z,3.10
2023-01-23T21:44:55.261Z,3.20
2023-01-23T21:47:59.961Z,3.10
2023-01-23T21:51:21.829Z,3.20
2023-01-23T21:54:24.218Z,3.20
2023-01-23T21:57:26.449Z,3.20
2023-01-23T22:00:46.735Z,3.20
2023-01-23T22:03:49.273Z,3.20
2023-01-23T22:07:02.516Z,3.20
2023-01-23T22:10:07.145Z,3.20
2023-01-23T22:13:12.468Z,3.20
2023-01-23T22:16:15.698Z,3.20
2023-01-23T22:19:25.391Z,3.20
2023-01-23T22:22:28.062Z,3.20
2023-01-23T22:25:33.348Z,3.20
2023-01-23T22:36:20.447Z,3.30
2023-01-23T22:39:25.116Z,3.30
2023-01-23T22:42:31.153Z,3.20
2023-01-23T22:45:33.660Z,3.30
2023-01-23T22:48:39.049Z,3.30
2023-01-23T22:51:41.169Z,3.30
2023-01-23T22:54:45.521Z,3.30
2023-01-23T22:57:50.772Z,3.30
2023-01-23T23:01:00.662Z,3.20
2023-01-23T23:04:26.514Z,3.20
2023-01-23T23:07:49.525Z,3.20
2023-01-23T23:18:45.698Z,3.20
2023-01-23T23:22:29.577Z,3.20
2023-01-23T23:26:48.469Z,3.20
2023-01-23T23:31:01.762Z,3.20
2023-01-23T23:34:50.904Z,3.30
